sensor_id;sensor_type;location;lat;lon;timestamp;pressure;altitude;pressure_sealevel;temperature;humidity
28181;BME280;15464;50.988;10.318;2023-03-20T00:01:23;99034.16;;;8.71;97.80
28181;BME280;15464;50.988;10.318;2023-03-20T00:03:51;99030.06;;;8.56;98.53
28181;BME280;15464;50.988;10.318;2023-03-20T00:06:23;99032.19;;;8.50;98.97
28181;BME280;15464;50.988;10.318;2023-03-20T00:08:52;99034.72;;;8.52;98.70
28181;BME280;15464;50.988;10.318;2023-03-20T00:11:35;99040.94;;;8.40;98.86
28181;BME280;15464;50.988;10.318;2023-03-20T00:14:09;99043.56;;;8.40;99.59
28181;BME280;15464;50.988;10.318;2023-03-20T00:16:38;99038.19;;;8.41;99.22
28181;BME280;15464;50.988;10.318;2023-03-20T00:19:14;99039.50;;;8.36;98.80
28181;BME280;15464;50.988;10.318;2023-03-20T00:21:42;99045.94;;;8.32;99.49
28181;BME280;15464;50.988;10.318;2023-03-20T00:24:09;99047.22;;;8.26;99.00
28181;BME280;15464;50.988;10.318;2023-03-20T00:26:36;99043.97;;;8.23;98.39
28181;BME280;15464;50.988;10.318;2023-03-20T00:29:05;99037.94;;;8.21;98.68
28181;BME280;15464;50.988;10.318;2023-03-20T00:31:35;99045.31;;;8.04;100.00
28181;BME280;15464;50.988;10.318;2023-03-20T00:34:05;99040.69;;;7.95;100.00
28181;BME280;15464;50.988;10.318;2023-03-20T00:36:32;99044.97;;;7.85;100.00
28181;BME280;15464;50.988;10.318;2023-03-20T00:38:59;99037.72;;;7.76;100.00
28181;BME280;15464;50.988;10.318;2023-03-20T00:41:33;99042.16;;;7.76;100.00
28181;BME280;15464;50.988;10.318;2023-03-20T00:44:17;99047.56;;;7.74;100.00
28181;BME280;15464;50.988;10.318;2023-03-20T00:46:47;99046.59;;;7.75;100.00
28181;BME280;15464;50.988;10.318;2023-03-20T00:49:15;99056.69;;;7.81;100.00
28181;BME280;15464;50.988;10.318;2023-03-20T00:51:42;99051.31;;;7.83;100.00
28181;BME280;15464;50.988;10.318;2023-03-20T00:54:14;99052.41;;;7.80;100.00
28181;BME280;15464;50.988;10.318;2023-03-20T00:59:16;99057.75;;;7.91;100.00
28181;BME280;15464;50.988;10.318;2023-03-20T01:01:45;99056.34;;;7.98;100.00
28181;BME280;15464;50.988;10.318;2023-03-20T01:04:14;99056.09;;;8.01;100.00
28181;BME280;15464;50.988;10.318;2023-03-20T01:06:42;99060.13;;;7.94;100.00
28181;BME280;15464;50.988;10.318;2023-03-20T01:09:09;99062.91;;;7.93;100.00
28181;BME280;15464;50.988;10.318;2023-03-20T01:11:37;99058.44;;;7.93;100.00
28181;BME280;15464;50.988;10.318;2023-03-20T01:14:05;99058.28;;;7.84;100.00
28181;BME280;15464;50.988;10.318;2023-03-20T01:16:32;99060.47;;;7.90;100.00
28181;BME280;15464;50.988;10.318;2023-03-20T01:18:58;99056.78;;;7.92;100.00
28181;BME280;15464;50.988;10.318;2023-03-20T01:21:25;99056.78;;;7.92;100.00
28181;BME280;15464;50.988;10.318;2023-03-20T01:23:52;99060.28;;;7.93;100.00
28181;BME280;15464;50.988;10.318;2023-03-20T01:26:33;99063.72;;;7.93;100.00
28181;BME280;15464;50.988;10.318;2023-03-20T01:29:00;99062.56;;;7.97;100.00
28181;BME280;15464;50.988;10.318;2023-03-20T01:31:27;99068.34;;;8.02;100.00
28181;BME280;15464;50.988;10.318;2023-03-20T01:33:54;99064.97;;;8.00;100.00
28181;BME280;15464;50.988;10.318;2023-03-20T01:36:21;99068.81;;;7.96;100.00
28181;BME280;15464;50.988;10.318;2023-03-20T01:38:53;99063.53;;;7.96;100.00
28181;BME280;15464;50.988;10.318;2023-03-20T01:41:22;99061.50;;;8.00;100.00
28181;BME280;15464;50.988;10.318;2023-03-20T01:43:50;99060.69;;;7.99;100.00
28181;BME280;15464;50.988;10.318;2023-03-20T01:46:28;99064.13;;;8.00;100.00
28181;BME280;15464;50.988;10.318;2023-03-20T01:51:29;99060.53;;;8.01;100.00
28181;BME280;15464;50.988;10.318;2023-03-20T01:54:11;99051.56;;;8.03;100.00
28181;BME280;15464;50.988;10.318;2023-03-20T01:59:17;99055.91;;;8.04;100.00
28181;BME280;15464;50.988;10.318;2023-03-20T02:01:46;99054.41;;;8.00;100.00
28181;BME280;15464;50.988;10.318;2023-03-20T02:04:13;99058.03;;;7.99;100.00
28181;BME280;15464;50.988;10.318;2023-03-20T02:06:41;99048.06;;;8.03;100.00
28181;BME280;15464;50.988;10.318;2023-03-20T02:09:10;99046.63;;;7.99;100.00
28181;BME280;15464;50.988;10.318;2023-03-20T02:11:39;99046.72;;;7.97;100.00
28181;BME280;15464;50.988;10.318;2023-03-20T02:14:08;99049.38;;;7.97;100.00
28181;BME280;15464;50.988;10.318;2023-03-20T02:16:35;99042.19;;;7.99;100.00
28181;BME280;15464;50.988;10.318;2023-03-20T02:19:03;99049.38;;;7.97;100.00
28181;BME280;15464;50.988;10.318;2023-03-20T02:27:38;99036.66;;;8.02;100.00
28181;BME280;15464;50.988;10.318;2023-03-20T02:33:27;99051.00;;;8.11;100.00
28181;BME280;15464;50.988;10.318;2023-03-20T03:00:40;99057.34;;;8.08;100.00
28181;BME280;15464;50.988;10.318;2023-03-20T03:03:16;99061.78;;;8.08;100.00
28181;BME280;15464;50.988;10.318;2023-03-20T03:05:51;99058.09;;;8.10;100.00
28181;BME280;15464;50.988;10.318;2023-03-20T03:08:21;99050.16;;;8.10;100.00
28181;BME280;15464;50.988;10.318;2023-03-20T03:11:16;99050.16;;;8.10;100.00
28181;BME280;15464;50.988;10.318;2023-03-20T03:13:50;99057.00;;;8.13;100.00
28181;BME280;15464;50.988;10.318;2023-03-20T03:16:21;99058.78;;;8.13;100.00
28181;BME280;15464;50.988;10.318;2023-03-20T03:18:59;99062.19;;;8.15;100.00
28181;BME280;15464;50.988;10.318;2023-03-20T03:21:28;99061.97;;;8.18;100.00
28181;BME280;15464;50.988;10.318;2023-03-20T03:23:55;99055.34;;;8.36;100.00
28181;BME280;15464;50.988;10.318;2023-03-20T03:26:28;99064.66;;;8.29;100.00
28181;BME280;15464;50.988;10.318;2023-03-20T03:28:59;99073.75;;;8.25;100.00
28181;BME280;15464;50.988;10.318;2023-03-20T03:31:28;99071.84;;;8.27;100.00
28181;BME280;15464;50.988;10.318;2023-03-20T03:33:57;99071.72;;;8.28;100.00
28181;BME280;15464;50.988;10.318;2023-03-20T03:37:09;99066.44;;;8.28;100.00
28181;BME280;15464;50.988;10.318;2023-03-20T03:39:40;99079.44;;;8.31;100.00
28181;BME280;15464;50.988;10.318;2023-03-20T03:42:55;99081.53;;;8.39;100.00
28181;BME280;15464;50.988;10.318;2023-03-20T03:48:00;99081.31;;;8.42;100.00
28181;BME280;15464;50.988;10.318;2023-03-20T03:50:36;99087.06;;;8.36;100.00
28181;BME280;15464;50.988;10.318;2023-03-20T03:53:09;99086.59;;;8.42;100.00
28181;BME280;15464;50.988;10.318;2023-03-20T03:55:42;99086.59;;;8.42;100.00
28181;BME280;15464;50.988;10.318;2023-03-20T03:58:28;99092.50;;;8.45;100.00
28181;BME280;15464;50.988;10.318;2023-03-20T04:00:57;99087.59;;;8.52;100.00
28181;BME280;15464;50.988;10.318;2023-03-20T04:03:27;99094.78;;;8.50;100.00
28181;BME280;15464;50.988;10.318;2023-03-20T04:05:56;99090.59;;;8.47;100.00
28181;BME280;15464;50.988;10.318;2023-03-20T04:08:24;99090.59;;;8.47;100.00
28181;BME280;15464;50.988;10.318;2023-03-20T04:10:50;99098.41;;;8.49;100.00
28181;BME280;15464;50.988;10.318;2023-03-20T04:13:17;99091.31;;;8.49;100.00
28181;BME280;15464;50.988;10.318;2023-03-20T04:15:44;99091.19;;;8.51;100.00
28181;BME280;15464;50.988;10.318;2023-03-20T04:18:14;99087.69;;;8.50;100.00
28181;BME280;15464;50.988;10.318;2023-03-20T04:20:45;99091.44;;;8.48;100.00
28181;BME280;15464;50.988;10.318;2023-03-20T04:23:13;99093.13;;;8.49;100.00
28181;BME280;15464;50.988;10.318;2023-03-20T04:25:40;99084.56;;;8.45;100.00
28181;BME280;15464;50.988;10.318;2023-03-20T04:28:07;99088.31;;;8.43;100.00
28181;BME280;15464;50.988;10.318;2023-03-20T04:30:33;99090.69;;;8.46;100.00
28181;BME280;15464;50.988;10.318;2023-03-20T04:33:00;99093.84;;;8.51;100.00
28181;BME280;15464;50.988;10.318;2023-03-20T04:35:27;99091.19;;;8.51;100.00
28181;BME280;15464;50.988;10.318;2023-03-20T04:37:54;99099.00;;;8.53;100.00
28181;BME280;15464;50.988;10.318;2023-03-20T04:40:21;99093.72;;;8.53;100.00
28181;BME280;15464;50.988;10.318;2023-03-20T04:42:48;99098.66;;;8.57;100.00
28181;BME280;15464;50.988;10.318;2023-03-20T04:45:14;99104.91;;;8.56;100.00
28181;BME280;15464;50.988;10.318;2023-03-20T04:47:41;99103.94;;;8.57;100.00
28181;BME280;15464;50.988;10.318;2023-03-20T04:50:08;99103.00;;;8.58;100.00
28181;BME280;15464;50.988;10.318;2023-03-20T04:52:35;99112.84;;;8.56;100.00
28181;BME280;15464;50.988;10.318;2023-03-20T04:55:02;99103.84;;;8.59;100.00
28181;BME280;15464;50.988;10.318;2023-03-20T04:57:28;99109.13;;;8.59;100.00
28181;BME280;15464;50.988;10.318;2023-03-20T04:59:57;99108.19;;;8.60;100.00
28181;BME280;15464;50.988;10.318;2023-03-20T05:02:24;99109.97;;;8.59;100.00
28181;BME280;15464;50.988;10.318;2023-03-20T05:04:50;99105.44;;;8.61;100.00
28181;BME280;15464;50.988;10.318;2023-03-20T05:07:17;99109.72;;;8.62;100.00
28181;BME280;15464;50.988;10.318;2023-03-20T05:09:43;99102.91;;;8.60;100.00
28181;BME280;15464;50.988;10.318;2023-03-20T05:12:10;99108.06;;;8.61;100.00
28181;BME280;15464;50.988;10.318;2023-03-20T05:14:37;99106.28;;;8.62;100.00
28181;BME280;15464;50.988;10.318;2023-03-20T05:17:04;99104.44;;;8.62;100.00
28181;BME280;15464;50.988;10.318;2023-03-20T05:19:30;99104.97;;;8.67;100.00
28181;BME280;15464;50.988;10.318;2023-03-20T05:21:57;99111.22;;;8.66;100.00
28181;BME280;15464;50.988;10.318;2023-03-20T05:24:24;99106.78;;;8.67;100.00
28181;BME280;15464;50.988;10.318;2023-03-20T05:26:51;99105.44;;;8.61;100.00
28181;BME280;15464;50.988;10.318;2023-03-20T05:29:18;99109.72;;;8.62;100.00
28181;BME280;15464;50.988;10.318;2023-03-20T05:31:45;99109.88;;;8.61;100.00
28181;BME280;15464;50.988;10.318;2023-03-20T05:34:12;99102.53;;;8.64;100.00
28181;BME280;15464;50.988;10.318;2023-03-20T05:36:38;99095.84;;;8.71;100.00
28181;BME280;15464;50.988;10.318;2023-03-20T05:39:05;99098.47;;;8.71;100.00
28181;BME280;15464;50.988;10.318;2023-03-20T05:41:32;99102.94;;;8.71;100.00
28181;BME280;15464;50.988;10.318;2023-03-20T05:43:59;99096.44;;;8.75;100.00
28181;BME280;15464;50.988;10.318;2023-03-20T05:46:25;99093.56;;;8.78;100.00
28181;BME280;15464;50.988;10.318;2023-03-20T05:48:52;99089.13;;;8.78;100.00
28181;BME280;15464;50.988;10.318;2023-03-20T05:51:19;99091.88;;;8.77;100.00
28181;BME280;15464;50.988;10.318;2023-03-20T05:53:46;99096.31;;;8.76;100.00
28181;BME280;15464;50.988;10.318;2023-03-20T05:56:12;99094.63;;;8.75;100.00
28181;BME280;15464;50.988;10.318;2023-03-20T05:58:39;99099.72;;;8.78;100.00
28181;BME280;15464;50.988;10.318;2023-03-20T06:01:06;99104.53;;;8.84;100.00
28181;BME280;15464;50.988;10.318;2023-03-20T06:03:32;99099.13;;;8.86;100.00
28181;BME280;15464;50.988;10.318;2023-03-20T06:05:59;99104.19;;;8.89;100.00
28181;BME280;15464;50.988;10.318;2023-03-20T06:08:26;99114.16;;;8.85;100.00
28181;BME280;15464;50.988;10.318;2023-03-20T06:10:52;99106.69;;;8.79;100.00
28181;BME280;15464;50.988;10.318;2023-03-20T06:13:19;99110.41;;;8.77;100.00
28181;BME280;15464;50.988;10.318;2023-03-20T06:15:46;99110.50;;;8.75;100.00
28181;BME280;15464;50.988;10.318;2023-03-20T06:18:12;99112.94;;;8.78;100.00
28181;BME280;15464;50.988;10.318;2023-03-20T06:20:39;99113.50;;;8.71;100.00
28181;BME280;15464;50.988;10.318;2023-03-20T06:23:06;99114.25;;;8.73;100.00
28181;BME280;15464;50.988;10.318;2023-03-20T06:25:33;99119.41;;;8.74;100.00
28181;BME280;15464;50.988;10.318;2023-03-20T06:28:00;99127.47;;;8.73;100.00
28181;BME280;15464;50.988;10.318;2023-03-20T06:30:27;99124.72;;;8.74;100.00
28181;BME280;15464;50.988;10.318;2023-03-20T06:32:54;99131.91;;;8.72;100.00
28181;BME280;15464;50.988;10.318;2023-03-20T06:35:20;99121.72;;;8.79;100.00
28181;BME280;15464;50.988;10.318;2023-03-20T06:37:47;99129.41;;;8.82;100.00
28181;BME280;15464;50.988;10.318;2023-03-20T06:40:14;99128.84;;;8.89;100.00
28181;BME280;15464;50.988;10.318;2023-03-20T06:42:41;99130.97;;;8.84;100.00
28181;BME280;15464;50.988;10.318;2023-03-20T06:45:08;99133.66;;;8.96;100.00
28181;BME280;15464;50.988;10.318;2023-03-20T06:47:34;99131.28;;;9.04;100.00
28181;BME280;15464;50.988;10.318;2023-03-20T06:50:01;99140.31;;;9.12;100.00
28181;BME280;15464;50.988;10.318;2023-03-20T06:52:28;99145.22;;;9.06;100.00
28181;BME280;15464;50.988;10.318;2023-03-20T06:54:54;99134.19;;;9.12;100.00
28181;BME280;15464;50.988;10.318;2023-03-20T06:57:22;99132.16;;;9.15;100.00
28181;BME280;15464;50.988;10.318;2023-03-20T06:59:49;99125.16;;;9.25;100.00
28181;BME280;15464;50.988;10.318;2023-03-20T07:02:16;99125.63;;;9.08;100.00
28181;BME280;15464;50.988;10.318;2023-03-20T07:04:43;99121.78;;;9.12;100.00
28181;BME280;15464;50.988;10.318;2023-03-20T07:07:10;99125.31;;;9.24;100.00
28181;BME280;15464;50.988;10.318;2023-03-20T07:09:36;99123.84;;;9.31;100.00
28181;BME280;15464;50.988;10.318;2023-03-20T07:12:04;99125.31;;;9.35;100.00
28181;BME280;15464;50.988;10.318;2023-03-20T07:14:30;99127.00;;;9.36;100.00
28181;BME280;15464;50.988;10.318;2023-03-20T07:16:57;99129.28;;;9.41;100.00
28181;BME280;15464;50.988;10.318;2023-03-20T07:19:24;99127.50;;;9.41;100.00
28181;BME280;15464;50.988;10.318;2023-03-20T07:21:57;99123.63;;;9.45;100.00
28181;BME280;15464;50.988;10.318;2023-03-20T07:24:27;99127.59;;;9.40;100.00
28181;BME280;15464;50.988;10.318;2023-03-20T07:26:53;99139.25;;;9.37;100.00
28181;BME280;15464;50.988;10.318;2023-03-20T07:29:20;99145.41;;;9.38;100.00
28181;BME280;15464;50.988;10.318;2023-03-20T07:31:47;99158.53;;;9.39;100.00
28181;BME280;15464;50.988;10.318;2023-03-20T07:34:14;99159.47;;;9.38;100.00
28181;BME280;15464;50.988;10.318;2023-03-20T07:36:41;99155.63;;;9.31;100.00
28181;BME280;15464;50.988;10.318;2023-03-20T07:39:08;99162.84;;;9.29;100.00
28181;BME280;15464;50.988;10.318;2023-03-20T07:41:38;99166.69;;;9.25;100.00
28181;BME280;15464;50.988;10.318;2023-03-20T07:44:05;99169.94;;;9.28;100.00
28181;BME280;15464;50.988;10.318;2023-03-20T07:46:33;99171.03;;;9.37;100.00
28181;BME280;15464;50.988;10.318;2023-03-20T07:49:00;99176.06;;;9.18;100.00
28181;BME280;15464;50.988;10.318;2023-03-20T07:51:27;99175.59;;;9.24;100.00
28181;BME280;15464;50.988;10.318;2023-03-20T07:53:53;99178.72;;;9.29;100.00
28181;BME280;15464;50.988;10.318;2023-03-20T07:56:20;99189.06;;;9.32;100.00
28181;BME280;15464;50.988;10.318;2023-03-20T07:58:46;99181.41;;;9.40;100.00
28181;BME280;15464;50.988;10.318;2023-03-20T08:01:13;99188.97;;;9.45;100.00
28181;BME280;15464;50.988;10.318;2023-03-20T08:03:40;99174.88;;;9.33;100.00
28181;BME280;15464;50.988;10.318;2023-03-20T08:06:08;99174.88;;;9.33;100.00
28181;BME280;15464;50.988;10.318;2023-03-20T08:08:35;99173.81;;;9.36;100.00
28181;BME280;15464;50.988;10.318;2023-03-20T08:11:02;99171.03;;;9.37;100.00
28181;BME280;15464;50.988;10.318;2023-03-20T08:13:29;99173.19;;;9.32;100.00
28181;BME280;15464;50.988;10.318;2023-03-20T08:15:56;99178.38;;;9.34;100.00
28181;BME280;15464;50.988;10.318;2023-03-20T08:18:23;99171.38;;;9.32;100.00
28181;BME280;15464;50.988;10.318;2023-03-20T08:20:50;99182.34;;;9.39;100.00
28181;BME280;15464;50.988;10.318;2023-03-20T08:23:16;99178.25;;;9.35;100.00
28181;BME280;15464;50.988;10.318;2023-03-20T08:25:47;99175.84;;;9.32;100.00
28181;BME280;15464;50.988;10.318;2023-03-20T08:28:14;99178.94;;;9.26;100.00
28181;BME280;15464;50.988;10.318;2023-03-20T08:30:40;99173.44;;;9.29;100.00
28181;BME280;15464;50.988;10.318;2023-03-20T08:33:07;99178.72;;;9.29;100.00
28181;BME280;15464;50.988;10.318;2023-03-20T08:35:34;99182.34;;;9.28;100.00
28181;BME280;15464;50.988;10.318;2023-03-20T08:38:02;99185.72;;;9.30;100.00
28181;BME280;15464;50.988;10.318;2023-03-20T08:40:29;99196.59;;;9.03;100.00
28181;BME280;15464;50.988;10.318;2023-03-20T08:42:56;99194.06;;;9.13;100.00
28181;BME280;15464;50.988;10.318;2023-03-20T08:45:23;99187.63;;;9.28;100.00
28181;BME280;15464;50.988;10.318;2023-03-20T08:47:52;99194.44;;;9.19;100.00
28181;BME280;15464;50.988;10.318;2023-03-20T08:50:18;99192.94;;;9.28;100.00
28181;BME280;15464;50.988;10.318;2023-03-20T08:52:45;99193.78;;;9.28;100.00
28181;BME280;15464;50.988;10.318;2023-03-20T08:55:13;99199.63;;;9.21;100.00
28181;BME280;15464;50.988;10.318;2023-03-20T08:57:41;99188.91;;;9.11;100.00
28181;BME280;15464;50.988;10.318;2023-03-20T09:00:11;99201.69;;;9.17;100.00
28181;BME280;15464;50.988;10.318;2023-03-20T09:02:40;99198.06;;;9.18;100.00
28181;BME280;15464;50.988;10.318;2023-03-20T09:07:54;99200.34;;;9.12;100.00
28181;BME280;15464;50.988;10.318;2023-03-20T09:10:21;99203.59;;;9.15;100.00
28181;BME280;15464;50.988;10.318;2023-03-20T09:12:48;99208.03;;;9.15;100.00
28181;BME280;15464;50.988;10.318;2023-03-20T09:15:14;99208.88;;;9.15;100.00
28181;BME280;15464;50.988;10.318;2023-03-20T09:17:41;99211.19;;;9.20;100.00
28181;BME280;15464;50.988;10.318;2023-03-20T09:20:08;99205.88;;;9.20;100.00
28181;BME280;15464;50.988;10.318;2023-03-20T09:22:35;99208.06;;;9.26;100.00
28181;BME280;15464;50.988;10.318;2023-03-20T09:25:02;99202.94;;;9.36;100.00
28181;BME280;15464;50.988;10.318;2023-03-20T09:27:29;99205.22;;;9.40;100.00
28181;BME280;15464;50.988;10.318;2023-03-20T09:29:55;99204.88;;;9.45;100.00
28181;BME280;15464;50.988;10.318;2023-03-20T09:32:22;99202.78;;;9.37;100.00
28181;BME280;15464;50.988;10.318;2023-03-20T09:34:49;99202.38;;;9.54;100.00
28181;BME280;15464;50.988;10.318;2023-03-20T09:37:16;99209.78;;;9.38;100.00
28181;BME280;15464;50.988;10.318;2023-03-20T09:39:43;99203.06;;;9.56;100.00
28181;BME280;15464;50.988;10.318;2023-03-20T09:48:14;99210.94;;;9.80;100.00
28181;BME280;15464;50.988;10.318;2023-03-20T09:51:13;99208.66;;;9.87;100.00
28181;BME280;15464;50.988;10.318;2023-03-20T09:53:58;99211.41;;;9.96;100.00
28181;BME280;15464;50.988;10.318;2023-03-20T09:56:28;99215.28;;;9.92;100.00
28181;BME280;15464;50.988;10.318;2023-03-20T09:59:01;99213.47;;;9.93;100.00
28181;BME280;15464;50.988;10.318;2023-03-20T10:04:16;99212.28;;;9.86;100.00
28181;BME280;15464;50.988;10.318;2023-03-20T10:06:43;99219.84;;;9.90;100.00
28181;BME280;15464;50.988;10.318;2023-03-20T10:09:14;99221.41;;;9.82;100.00
28181;BME280;15464;50.988;10.318;2023-03-20T10:25:07;99204.66;;;10.15;100.00
28181;BME280;15464;50.988;10.318;2023-03-20T10:27:47;99207.44;;;10.35;100.00
28181;BME280;15464;50.988;10.318;2023-03-20T10:35:49;99202.94;;;10.58;100.00
28181;BME280;15464;50.988;10.318;2023-03-20T10:40:50;99203.31;;;10.54;99.25
28181;BME280;15464;50.988;10.318;2023-03-20T10:43:25;99203.09;;;10.45;98.34
28181;BME280;15464;50.988;10.318;2023-03-20T10:48:47;99192.91;;;10.93;98.32
28181;BME280;15464;50.988;10.318;2023-03-20T10:51:17;99194.69;;;11.04;97.44
28181;BME280;15464;50.988;10.318;2023-03-20T10:53:51;99191.25;;;11.13;94.49
28181;BME280;15464;50.988;10.318;2023-03-20T10:56:37;99184.75;;;11.17;93.37
28181;BME280;15464;50.988;10.318;2023-03-20T10:59:11;99179.03;;;11.22;93.99
28181;BME280;15464;50.988;10.318;2023-03-20T11:01:41;99181.50;;;11.35;92.17
28181;BME280;15464;50.988;10.318;2023-03-20T11:04:08;99171.19;;;11.41;90.31
28181;BME280;15464;50.988;10.318;2023-03-20T11:09:22;99167.53;;;11.12;88.64
28181;BME280;15464;50.988;10.318;2023-03-20T11:11:52;99169.50;;;11.19;89.25
28181;BME280;15464;50.988;10.318;2023-03-20T11:14:24;99153.09;;;11.56;89.24
28181;BME280;15464;50.988;10.318;2023-03-20T11:16:51;99150.81;;;11.72;88.35
28181;BME280;15464;50.988;10.318;2023-03-20T11:19:20;99151.03;;;11.80;87.40
28181;BME280;15464;50.988;10.318;2023-03-20T11:21:50;99138.59;;;11.90;85.65
28181;BME280;15464;50.988;10.318;2023-03-20T11:24:34;99149.13;;;12.01;82.99
28181;BME280;15464;50.988;10.318;2023-03-20T11:27:15;99143.91;;;11.90;82.81
28181;BME280;15464;50.988;10.318;2023-03-20T11:29:46;99138.78;;;12.08;82.95
28181;BME280;15464;50.988;10.318;2023-03-20T11:32:30;99134.91;;;12.22;82.82
28181;BME280;15464;50.988;10.318;2023-03-20T11:35:19;99124.03;;;12.34;80.68
28181;BME280;15464;50.988;10.318;2023-03-20T11:37:50;99129.59;;;12.22;80.76
28181;BME280;15464;50.988;10.318;2023-03-20T11:40:29;99121.34;;;12.25;78.61
28181;BME280;15464;50.988;10.318;2023-03-20T11:43:02;99125.28;;;12.40;78.38
28181;BME280;15464;50.988;10.318;2023-03-20T11:45:56;99126.00;;;12.71;78.05
28181;BME280;15464;50.988;10.318;2023-03-20T11:48:25;99123.47;;;12.69;77.72
28181;BME280;15464;50.988;10.318;2023-03-20T11:51:05;99118.56;;;12.36;76.02
28181;BME280;15464;50.988;10.318;2023-03-20T11:53:52;99121.81;;;12.68;78.70
28181;BME280;15464;50.988;10.318;2023-03-20T11:56:23;99118.16;;;12.69;75.41
28181;BME280;15464;50.988;10.318;2023-03-20T12:01:28;99121.22;;;12.36;76.15
28181;BME280;15464;50.988;10.318;2023-03-20T12:04:09;99108.06;;;12.44;75.75
28181;BME280;15464;50.988;10.318;2023-03-20T12:09:32;99117.34;;;12.78;75.34
28181;BME280;15464;50.988;10.318;2023-03-20T12:12:02;99113.94;;;12.38;74.32
28181;BME280;15464;50.988;10.318;2023-03-20T12:14:43;99110.13;;;12.21;75.32
28181;BME280;15464;50.988;10.318;2023-03-20T12:19:48;99115.34;;;11.83;75.37
28181;BME280;15464;50.988;10.318;2023-03-20T12:22:38;99110.44;;;11.78;74.93
28181;BME280;15464;50.988;10.318;2023-03-20T12:27:45;99102.16;;;12.11;75.51
28181;BME280;15464;50.988;10.318;2023-03-20T12:33:03;99101.38;;;11.90;75.00
28181;BME280;15464;50.988;10.318;2023-03-20T12:35:37;99098.44;;;11.84;74.35
28181;BME280;15464;50.988;10.318;2023-03-20T12:38:36;99095.25;;;11.69;71.84
28181;BME280;15464;50.988;10.318;2023-03-20T12:41:28;99103.72;;;11.74;73.52
28181;BME280;15464;50.988;10.318;2023-03-20T12:47:06;99106.47;;;11.72;71.33
28181;BME280;15464;50.988;10.318;2023-03-20T12:49:59;99093.47;;;12.09;70.16
28181;BME280;15464;50.988;10.318;2023-03-20T12:58:45;99081.72;;;12.22;70.42
28181;BME280;15464;50.988;10.318;2023-03-20T13:01:18;99080.91;;;12.40;70.44
28181;BME280;15464;50.988;10.318;2023-03-20T13:06:53;99073.63;;;12.33;71.35
28181;BME280;15464;50.988;10.318;2023-03-20T13:17:23;99062.16;;;12.80;68.44
28181;BME280;15464;50.988;10.318;2023-03-20T13:31:36;99059.06;;;12.37;66.73
28181;BME280;15464;50.988;10.318;2023-03-20T13:34:11;99053.03;;;12.44;66.84
28181;BME280;15464;50.988;10.318;2023-03-20T13:39:32;99045.75;;;12.08;66.29
28181;BME280;15464;50.988;10.318;2023-03-20T13:42:03;99044.63;;;12.10;66.35
28181;BME280;15464;50.988;10.318;2023-03-20T13:44:33;99043.53;;;12.42;66.16
28181;BME280;15464;50.988;10.318;2023-03-20T13:47:09;99037.78;;;12.46;64.60
28181;BME280;15464;50.988;10.318;2023-03-20T13:52:48;99029.84;;;13.03;63.13
28181;BME280;15464;50.988;10.318;2023-03-20T13:55:29;99025.09;;;13.16;65.31
28181;BME280;15464;50.988;10.318;2023-03-20T13:58:00;99019.72;;;13.25;63.59
28181;BME280;15464;50.988;10.318;2023-03-20T14:05:54;99027.09;;;12.75;60.46
28181;BME280;15464;50.988;10.318;2023-03-20T14:13:49;99019.47;;;13.09;61.70
28181;BME280;15464;50.988;10.318;2023-03-20T14:16:18;99024.06;;;12.61;60.47
28181;BME280;15464;50.988;10.318;2023-03-20T14:19:02;99017.78;;;13.08;61.75
28181;BME280;15464;50.988;10.318;2023-03-20T14:21:30;99014.75;;;13.40;61.94
28181;BME280;15464;50.988;10.318;2023-03-20T14:24:02;99010.81;;;13.44;61.75
28181;BME280;15464;50.988;10.318;2023-03-20T14:26:37;99019.91;;;13.14;58.24
28181;BME280;15464;50.988;10.318;2023-03-20T14:31:37;99016.00;;;12.99;60.06
28181;BME280;15464;50.988;10.318;2023-03-20T14:34:14;99009.19;;;12.77;58.44
28181;BME280;15464;50.988;10.318;2023-03-20T14:37:01;99013.41;;;12.51;58.29
28181;BME280;15464;50.988;10.318;2023-03-20T14:39:56;99011.72;;;12.50;58.79
28181;BME280;15464;50.988;10.318;2023-03-20T14:42:59;99018.56;;;12.62;61.66
28181;BME280;15464;50.988;10.318;2023-03-20T14:45:35;99008.06;;;12.70;61.50
28181;BME280;15464;50.988;10.318;2023-03-20T14:48:24;99017.59;;;12.73;61.58
28181;BME280;15464;50.988;10.318;2023-03-20T14:51:16;99023.19;;;12.70;59.72
28181;BME280;15464;50.988;10.318;2023-03-20T14:53:53;99020.16;;;12.36;61.84
28181;BME280;15464;50.988;10.318;2023-03-20T14:56:32;99016.50;;;12.37;62.63
28181;BME280;15464;50.988;10.318;2023-03-20T14:59:03;99007.81;;;12.44;61.84
28181;BME280;15464;50.988;10.318;2023-03-20T15:04:26;99021.13;;;12.25;60.91
28181;BME280;15464;50.988;10.318;2023-03-20T15:07:01;99017.06;;;12.21;60.76
28181;BME280;15464;50.988;10.318;2023-03-20T15:09:30;99015.94;;;12.33;60.73
28181;BME280;15464;50.988;10.318;2023-03-20T15:11:58;99015.41;;;12.30;60.90
28181;BME280;15464;50.988;10.318;2023-03-20T15:14:34;99010.63;;;12.24;61.49
28181;BME280;15464;50.988;10.318;2023-03-20T15:17:02;99006.72;;;12.47;61.56
28181;BME280;15464;50.988;10.318;2023-03-20T15:19:29;98993.00;;;12.42;61.20
28181;BME280;15464;50.988;10.318;2023-03-20T15:21:57;99000.53;;;12.37;61.50
28181;BME280;15464;50.988;10.318;2023-03-20T15:24:28;99005.03;;;12.27;61.37
28181;BME280;15464;50.988;10.318;2023-03-20T15:26:57;99003.50;;;12.24;61.56
28181;BME280;15464;50.988;10.318;2023-03-20T15:29:25;99006.16;;;12.15;61.20
28181;BME280;15464;50.988;10.318;2023-03-20T15:31:59;99010.91;;;12.21;59.37
28181;BME280;15464;50.988;10.318;2023-03-20T15:34:41;99010.34;;;12.07;60.47
28181;BME280;15464;50.988;10.318;2023-03-20T15:37:19;99000.94;;;11.84;60.03
28181;BME280;15464;50.988;10.318;2023-03-20T15:39:52;99000.25;;;12.01;62.62